Time;durP1;ratioP1;P1;durP2;ratioP2;P2;SDS_P1;SDS_P2;PMS_P1;PMS_P2;Temp;Humidity;BMP_temperature;BMP_pressure;BME280_temperature;BME280_humidity;BME280_pressure;Samples;Min_cycle;Max_cycle;Signal;HPM_P1;HPM_P2
2022/09/11 00:01:29;;;;;;;2.72;2.03;;;;;;;13.55;83.87;100712.75;4993698;28;20073;-73
2022/09/11 00:03:55;;;;;;;3.00;1.90;;;;;;;13.54;84.16;100702.88;5008903;28;20037;-72
2022/09/11 00:06:21;;;;;;;2.15;1.65;;;;;;;13.54;83.93;100697.41;4994038;28;20033;-71
2022/09/11 00:08:59;;;;;;;2.08;1.67;;;;;;;13.51;84.23;100708.94;5003146;28;20026;-71
2022/09/11 00:11:26;;;;;;;5.90;2.20;;;;;;;13.48;84.71;100704.81;5009496;28;20022;-71
2022/09/11 00:13:53;;;;;;;3.15;2.05;;;;;;;13.47;84.34;100710.59;5005701;28;20156;-71
2022/09/11 00:16:28;;;;;;;3.15;1.95;;;;;;;13.49;85.08;100700.16;5013857;28;20037;-70
2022/09/11 00:18:56;;;;;;;2.08;1.50;;;;;;;13.49;84.93;100705.63;4997248;28;20599;-70
2022/09/11 00:21:23;;;;;;;1.50;1.30;;;;;;;13.49;84.73;100705.63;4995489;28;20028;-71
2022/09/11 00:23:48;;;;;;;1.58;1.17;;;;;;;13.48;84.41;100703.97;5012105;28;20026;-71
2022/09/11 00:26:15;;;;;;;1.33;1.02;;;;;;;13.46;85.35;100701.50;4992309;28;20018;-72
2022/09/11 00:28:41;;;;;;;1.10;1.00;;;;;;;13.43;84.55;100691.09;4993619;28;20021;-72
2022/09/11 00:31:11;;;;;;;2.38;1.48;;;;;;;13.40;84.78;100695.25;4996638;28;20076;-71
2022/09/11 00:33:37;;;;;;;1.95;1.20;;;;;;;13.34;84.59;100688.09;4997009;28;20136;-68
2022/09/11 00:36:06;;;;;;;1.52;1.33;;;;;;;13.32;84.97;100692.22;4998376;28;20481;-72
2022/09/11 00:38:35;;;;;;;1.52;1.13;;;;;;;13.29;84.93;100688.09;4997703;28;20021;-70
2022/09/11 00:41:03;;;;;;;1.00;0.90;;;;;;;13.26;84.76;100680.41;4997276;28;20087;-70
2022/09/11 00:43:49;;;;;;;3.13;1.55;;;;;;;13.24;84.80;100683.44;4991965;28;20057;-71
2022/09/11 00:46:15;;;;;;;1.75;1.20;;;;;;;13.26;84.70;100675.72;4991557;28;20042;-70
2022/09/11 00:48:42;;;;;;;1.80;1.35;;;;;;;13.25;84.52;100684.25;5015336;28;20022;-72
2022/09/11 00:51:09;;;;;;;1.52;1.10;;;;;;;13.21;85.39;100672.16;5017392;28;20034;-72
2022/09/11 00:53:37;;;;;;;1.40;1.17;;;;;;;13.21;85.20;100672.16;5014079;28;20034;-71
2022/09/11 00:56:06;;;;;;;1.60;1.38;;;;;;;13.19;85.00;100671.63;5017171;28;20131;-70
2022/09/11 00:58:36;;;;;;;1.42;1.00;;;;;;;13.23;84.92;100672.72;5023546;28;20026;-70
2022/09/11 01:01:02;;;;;;;5.70;1.20;;;;;;;13.22;85.30;100668.31;5015137;28;20046;-71
2022/09/11 01:03:29;;;;;;;2.05;1.00;;;;;;;13.18;85.20;100659.00;5010310;28;20558;-70
2022/09/11 01:05:55;;;;;;;1.45;1.00;;;;;;;13.18;85.12;100667.22;5012207;28;20068;-71
2022/09/11 01:08:21;;;;;;;2.17;1.40;;;;;;;13.17;85.36;100663.66;5011490;28;20026;-71
2022/09/11 01:11:05;;;;;;;2.80;1.45;;;;;;;13.14;85.45;100666.97;5016832;28;20030;-70
2022/09/11 01:13:40;;;;;;;1.27;1.10;;;;;;;13.09;85.24;100667.78;5015861;28;20476;-70
2022/09/11 01:16:19;;;;;;;2.45;1.52;;;;;;;13.05;85.65;100655.72;5018212;28;20048;-70
2022/09/11 01:19:10;;;;;;;1.55;1.15;;;;;;;13.04;85.99;100665.06;5016541;28;20026;-71
2022/09/11 01:22:04;;;;;;;2.78;1.33;;;;;;;12.99;85.87;100662.31;5002136;28;20057;-70
2022/09/11 01:24:52;;;;;;;1.30;1.20;;;;;;;12.98;86.10;100663.44;5013193;28;20437;-73
2022/09/11 01:27:41;;;;;;;2.50;1.65;;;;;;;12.95;85.56;100663.94;5013882;28;20021;-69
2022/09/11 01:30:08;;;;;;;1.92;1.45;;;;;;;12.94;85.81;100656.84;5005503;28;20018;-70
2022/09/11 01:32:53;;;;;;;1.63;1.20;;;;;;;12.89;85.84;100659.56;5013525;28;20022;-70
2022/09/11 01:35:30;;;;;;;2.33;1.58;;;;;;;12.87;86.32;100664.53;5010361;28;20034;-69
2022/09/11 01:37:56;;;;;;;2.88;1.50;;;;;;;12.84;86.22;100670.56;5010069;28;20452;-72
2022/09/11 01:41:06;;;;;;;3.50;2.10;;;;;;;12.77;86.50;100667.28;5013856;28;20030;-69
2022/09/11 01:43:37;;;;;;;4.03;2.15;;;;;;;12.69;86.85;100672.22;5014056;28;20536;-71
2022/09/11 01:46:06;;;;;;;2.22;1.92;;;;;;;12.66;86.85;100666.44;5009381;28;20038;-70
2022/09/11 01:48:40;;;;;;;1.50;1.40;;;;;;;12.62;87.27;100660.69;5013632;28;20097;-70
2022/09/11 01:51:11;;;;;;;2.17;1.80;;;;;;;12.62;87.21;100666.19;5013144;28;20022;-70
2022/09/11 01:53:41;;;;;;;2.63;1.77;;;;;;;12.57;87.06;100668.91;5014230;28;20036;-71
2022/09/11 01:56:12;;;;;;;2.97;1.85;;;;;;;12.50;87.52;100662.84;5011547;28;20063;-73
2022/09/11 01:58:39;;;;;;;2.90;1.80;;;;;;;12.47;88.05;100667.00;5018810;28;20038;-73
2022/09/11 02:01:18;;;;;;;2.33;1.50;;;;;;;12.46;88.26;100662.59;5016243;28;20156;-72
2022/09/11 02:04:17;;;;;;;1.83;1.27;;;;;;;12.37;88.25;100664.25;5013448;28;20026;-73
2022/09/11 02:07:03;;;;;;;2.35;1.65;;;;;;;12.42;88.58;100671.66;5007491;28;20553;-71
2022/09/11 02:09:50;;;;;;;2.75;1.90;;;;;;;12.39;88.32;100673.81;5017923;28;20053;-71
2022/09/11 02:12:19;;;;;;;2.25;1.50;;;;;;;12.37;88.78;100667.78;5017774;28;20022;-69
2022/09/11 02:14:49;;;;;;;2.42;1.65;;;;;;;12.34;88.45;100671.09;5014901;28;20393;-71
2022/09/11 02:17:47;;;;;;;2.55;1.70;;;;;;;12.31;89.36;100671.63;5006825;28;20431;-71
2022/09/11 02:20:14;;;;;;;1.70;1.58;;;;;;;12.27;88.95;100665.03;5006325;28;20033;-72
2022/09/11 02:22:40;;;;;;;3.70;1.88;;;;;;;12.26;88.97;100668.88;5001564;28;20034;-71
2022/09/11 02:25:06;;;;;;;1.38;1.27;;;;;;;12.25;89.58;100669.97;5011837;28;20040;-70
2022/09/11 02:27:32;;;;;;;3.17;1.83;;;;;;;12.26;89.83;100679.03;4994370;28;20041;-71
2022/09/11 02:29:58;;;;;;;6.00;1.83;;;;;;;12.27;89.70;100678.75;5001844;28;20091;-70
2022/09/11 02:32:26;;;;;;;1.70;1.60;;;;;;;12.27;90.45;100673.25;5014173;28;20033;-71
2022/09/11 02:34:54;;;;;;;2.03;1.65;;;;;;;12.26;89.95;100668.88;5014631;28;20089;-71
2022/09/11 02:37:38;;;;;;;1.45;1.20;;;;;;;12.27;90.27;100670.53;5012747;28;20033;-70
2022/09/11 02:40:17;;;;;;;1.30;1.00;;;;;;;12.29;89.92;100673.81;5004860;28;20038;-71
2022/09/11 02:42:47;;;;;;;1.20;0.98;;;;;;;12.33;90.40;100671.34;5008239;28;20030;-70
2022/09/11 02:45:40;;;;;;;2.03;0.98;;;;;;;12.34;90.61;100676.56;5011119;28;20037;-71
2022/09/11 02:48:24;;;;;;;1.65;1.20;;;;;;;12.35;90.54;100670.00;5015663;28;20022;-72
2022/09/11 02:51:16;;;;;;;1.13;1.03;;;;;;;12.33;90.43;100669.44;5008168;28;20029;-73
2022/09/11 02:54:04;;;;;;;1.30;1.20;;;;;;;12.31;90.01;100666.16;5009511;28;20044;-72
2022/09/11 02:57:00;;;;;;;3.38;1.40;;;;;;;12.26;90.47;100663.38;4963531;28;20037;-71
2022/09/11 02:59:31;;;;;;;1.65;1.23;;;;;;;12.17;90.06;100657.59;5007923;28;20428;-71
2022/09/11 03:02:00;;;;;;;1.98;1.60;;;;;;;12.18;90.32;100662.00;5013089;28;20037;-71
2022/09/11 03:04:27;;;;;;;0.95;0.90;;;;;;;12.17;89.90;100659.53;4981280;28;20134;-72
2022/09/11 03:06:53;;;;;;;1.30;1.20;;;;;;;12.14;89.97;100654.59;4973483;28;20026;-71
2022/09/11 03:09:19;;;;;;;1.75;1.38;;;;;;;12.12;89.99;100656.78;5021003;28;20088;-71
2022/09/11 03:11:45;;;;;;;1.67;1.40;;;;;;;12.11;90.28;100661.44;5005175;28;20446;-72
2022/09/11 03:14:11;;;;;;;1.45;1.25;;;;;;;12.06;90.28;100658.66;4994767;28;20057;-72
2022/09/11 03:16:36;;;;;;;1.45;1.15;;;;;;;12.09;89.95;100657.31;4999546;28;20403;-72
2022/09/11 03:19:03;;;;;;;2.65;1.60;;;;;;;12.06;90.67;100658.66;4982597;28;20038;-71
2022/09/11 03:21:29;;;;;;;2.33;1.70;;;;;;;12.04;90.19;100652.66;5010696;28;20038;-70
2022/09/11 03:23:56;;;;;;;1.77;1.48;;;;;;;12.07;90.15;100656.78;5014312;28;20032;-70
2022/09/11 03:26:22;;;;;;;2.08;1.83;;;;;;;12.07;90.36;100656.78;5014668;28;20021;-70
2022/09/11 03:28:49;;;;;;;3.00;1.55;;;;;;;12.07;90.11;100654.84;4987600;28;20076;-71
2022/09/11 03:31:15;;;;;;;1.75;1.63;;;;;;;12.03;90.46;100649.09;4994606;28;20116;-68
2022/09/11 03:33:40;;;;;;;2.53;2.15;;;;;;;12.04;90.10;100655.38;4993874;28;20484;-70
2022/09/11 03:36:06;;;;;;;4.00;2.67;;;;;;;12.01;90.36;100662.22;5000960;28;20042;-70
2022/09/11 03:38:31;;;;;;;3.97;2.20;;;;;;;11.96;90.81;100659.50;5018433;28;20038;-70
2022/09/11 03:40:57;;;;;;;2.53;1.83;;;;;;;11.93;90.62;100650.94;4965041;28;20034;-74
2022/09/11 03:43:23;;;;;;;2.75;1.52;;;;;;;11.90;90.96;100649.59;4995755;28;20038;-72
2022/09/11 03:45:50;;;;;;;1.50;1.40;;;;;;;11.86;91.14;100642.97;4988003;28;20062;-71
2022/09/11 03:48:17;;;;;;;1.50;1.27;;;;;;;11.84;91.20;100637.78;4995949;28;20478;-71
2022/09/11 03:50:46;;;;;;;1.10;1.00;;;;;;;11.81;91.20;100634.72;5011684;28;20025;-71
2022/09/11 03:53:12;;;;;;;2.33;1.30;;;;;;;11.79;91.14;100637.75;5014902;28;20067;-71
2022/09/11 03:55:37;;;;;;;2.50;1.10;;;;;;;11.79;90.64;100636.94;5013269;28;20026;-71
2022/09/11 03:58:03;;;;;;;1.40;1.30;;;;;;;11.77;91.28;100631.72;5002506;28;20033;-70
2022/09/11 04:00:28;;;;;;;1.58;1.38;;;;;;;11.76;90.64;100626.50;4992492;28;20038;-72
2022/09/11 04:02:54;;;;;;;3.03;1.40;;;;;;;11.76;90.59;100626.50;4993908;28;20026;-72
2022/09/11 04:05:23;;;;;;;2.03;1.45;;;;;;;11.76;90.86;100627.31;4993950;28;20034;-72
2022/09/11 04:07:48;;;;;;;1.80;1.02;;;;;;;11.73;91.38;100624.31;5001591;28;20023;-72
2022/09/11 04:10:14;;;;;;;1.48;1.27;;;;;;;11.77;91.02;100617.19;5012755;28;20483;-71
2022/09/11 04:12:40;;;;;;;1.38;1.25;;;;;;;11.77;90.72;100622.66;5013473;28;20108;-72
2022/09/11 04:15:06;;;;;;;1.70;1.60;;;;;;;11.70;91.26;100607.31;5014450;28;20033;-71
2022/09/11 04:17:32;;;;;;;2.03;1.67;;;;;;;11.73;90.95;100616.09;4999331;28;20034;-71
2022/09/11 04:19:57;;;;;;;4.97;1.60;;;;;;;11.68;91.15;100605.91;4993032;28;20053;-72
2022/09/11 04:22:23;;;;;;;2.38;1.70;;;;;;;11.64;91.21;100605.66;5000150;28;20076;-72
2022/09/11 04:24:48;;;;;;;2.53;1.65;;;;;;;11.63;91.25;100600.44;4987985;28;20030;-70
2022/09/11 04:27:13;;;;;;;1.50;1.40;;;;;;;11.57;91.60;100596.84;5002335;28;20026;-72
2022/09/11 04:29:39;;;;;;;1.92;1.67;;;;;;;11.53;91.61;100599.31;4996359;28;20026;-71
2022/09/11 04:32:04;;;;;;;1.73;1.33;;;;;;;11.51;91.04;100597.94;5019159;28;20399;-71
2022/09/11 04:34:30;;;;;;;1.50;1.33;;;;;;;11.52;91.10;100594.94;5026812;28;20054;-72
2022/09/11 04:36:56;;;;;;;1.48;1.38;;;;;;;11.51;91.70;100597.94;4998042;28;20080;-72
2022/09/11 04:39:22;;;;;;;1.70;1.60;;;;;;;11.52;91.20;100605.88;5025622;28;20029;-72
2022/09/11 04:41:47;;;;;;;2.72;1.90;;;;;;;11.50;91.62;100607.25;5029985;28;20030;-71
2022/09/11 04:44:13;;;;;;;4.80;2.33;;;;;;;11.51;91.67;100608.91;5006709;28;20021;-71
2022/09/11 04:46:40;;;;;;;5.70;3.85;;;;;;;11.49;91.51;100614.63;5008207;28;20054;-71
2022/09/11 04:49:07;;;;;;;5.10;4.18;;;;;;;11.44;92.08;100619.28;4998606;28;20029;-71
2022/09/11 04:51:37;;;;;;;3.28;2.78;;;;;;;11.35;91.30;100616.22;5000278;28;20483;-70
2022/09/11 04:54:05;;;;;;;3.55;2.65;;;;;;;11.08;91.27;100594.44;5016688;28;20049;-71
2022/09/11 04:56:33;;;;;;;2.63;2.15;;;;;;;11.12;92.02;100615.53;5009327;28;20034;-72
2022/09/11 04:59:01;;;;;;;2.38;1.88;;;;;;;11.07;92.20;100603.72;4995189;28;20085;-72
2022/09/11 05:01:29;;;;;;;2.72;1.73;;;;;;;11.03;92.11;100613.59;5015660;28;20034;-72
2022/09/11 05:03:55;;;;;;;2.55;1.70;;;;;;;11.00;91.61;100614.94;5015486;28;20125;-72
2022/09/11 05:06:21;;;;;;;3.97;1.48;;;;;;;11.01;91.93;100622.06;4996983;28;20112;-71
2022/09/11 05:08:47;;;;;;;2.80;1.98;;;;;;;11.00;92.06;100618.47;5000751;28;20096;-72
2022/09/11 05:11:15;;;;;;;2.15;1.90;;;;;;;10.99;91.63;100625.06;4996974;28;20040;-71
2022/09/11 05:13:42;;;;;;;2.72;1.90;;;;;;;10.97;91.86;100626.41;4999377;28;20037;-71
2022/09/11 05:16:10;;;;;;;3.78;2.50;;;;;;;10.97;91.83;100621.75;4991407;28;20076;-71
2022/09/11 05:18:36;;;;;;;2.00;1.80;;;;;;;10.97;92.17;100624.47;4989015;28;20023;-71
2022/09/11 05:21:08;;;;;;;2.75;2.08;;;;;;;10.98;92.31;100623.41;4956453;28;20041;-71
2022/09/11 05:23:33;;;;;;;2.05;1.52;;;;;;;11.03;91.91;100624.53;5014705;28;20034;-70
2022/09/11 05:26:01;;;;;;;1.75;1.42;;;;;;;11.04;92.42;100618.78;4996750;28;20165;-71
2022/09/11 05:28:28;;;;;;;2.65;1.60;;;;;;;11.09;91.82;100624.28;4997333;28;20038;-70
2022/09/11 05:30:53;;;;;;;2.13;1.88;;;;;;;11.10;92.38;100620.47;5014527;28;20022;-71
2022/09/11 05:33:22;;;;;;;3.22;2.13;;;;;;;11.17;92.68;100625.72;4996356;28;20405;-70
2022/09/11 05:35:49;;;;;;;2.72;2.35;;;;;;;11.20;92.08;100635.28;4994791;28;20484;-72
2022/09/11 05:38:16;;;;;;;2.30;1.83;;;;;;;11.23;92.61;100645.69;5015758;28;20037;-72
2022/09/11 05:40:47;;;;;;;2.97;2.67;;;;;;;11.22;92.43;100639.41;4995602;28;20052;-73
2022/09/11 05:43:14;;;;;;;5.68;4.18;;;;;;;11.17;92.65;100633.91;4977672;28;20128;-74
2022/09/11 05:45:40;;;;;;;5.68;3.75;;;;;;;11.31;92.75;100651.50;5006602;28;20041;-73
2022/09/11 05:48:06;;;;;;;4.45;3.13;;;;;;;11.33;92.65;100652.06;4980342;28;20026;-71
2022/09/11 05:50:32;;;;;;;2.97;2.60;;;;;;;11.37;92.73;100649.63;4970150;28;20135;-73
2022/09/11 05:52:57;;;;;;;3.10;2.72;;;;;;;11.40;92.97;100646.34;4971292;28;20038;-71
2022/09/11 05:55:22;;;;;;;3.50;2.88;;;;;;;11.44;92.49;100642.00;4991316;28;20092;-71
2022/09/11 05:57:51;;;;;;;4.10;2.88;;;;;;;11.52;92.42;100640.66;4989668;28;20129;-70
2022/09/11 06:00:16;;;;;;;3.13;2.83;;;;;;;11.58;92.23;100642.34;5018000;28;20021;-71
2022/09/11 06:02:42;;;;;;;5.60;2.90;;;;;;;11.62;92.25;100642.59;4997009;28;20028;-71
2022/09/11 06:05:07;;;;;;;4.55;3.97;;;;;;;11.69;92.21;100644.00;4984569;28;20038;-72
2022/09/11 06:07:34;;;;;;;3.65;3.20;;;;;;;11.77;92.00;100650.06;5003174;28;20029;-70
2022/09/11 06:09:59;;;;;;;2.67;2.47;;;;;;;11.86;91.78;100642.97;5021192;28;20654;-74
2022/09/11 06:12:26;;;;;;;2.47;2.28;;;;;;;11.94;91.24;100650.69;4988209;28;20219;-71
2022/09/11 06:14:51;;;;;;;4.28;2.40;;;;;;;12.03;91.32;100648.25;4989991;28;20029;-70
2022/09/11 06:17:17;;;;;;;3.17;2.35;;;;;;;12.12;91.57;100645.81;5018167;28;20033;-72
2022/09/11 06:19:42;;;;;;;5.38;3.60;;;;;;;12.12;91.06;100629.34;5017725;28;20038;-73
2022/09/11 06:22:08;;;;;;;8.45;3.20;;;;;;;12.25;90.69;100650.78;5016987;28;20448;-72
2022/09/11 06:24:33;;;;;;;3.45;2.35;;;;;;;12.32;90.51;100651.31;4995594;28;20108;-74
2022/09/11 06:26:59;;;;;;;2.35;2.15;;;;;;;12.38;90.34;100650.25;4983455;28;20030;-74
2022/09/11 06:29:25;;;;;;;2.63;1.85;;;;;;;12.45;90.24;100649.16;4983851;28;20034;-72
2022/09/11 06:31:50;;;;;;;2.72;2.50;;;;;;;12.52;90.66;100647.78;4992309;28;20545;-72
2022/09/11 06:34:18;;;;;;;2.95;2.33;;;;;;;12.63;90.49;100651.38;4993816;28;20439;-72
2022/09/11 06:36:45;;;;;;;3.03;2.60;;;;;;;12.69;90.02;100647.53;5022333;28;20026;-75
2022/09/11 06:39:10;;;;;;;3.50;2.85;;;;;;;12.80;89.72;100650.25;5028438;28;20029;-77
2022/09/11 06:41:38;;;;;;;4.85;3.08;;;;;;;12.78;89.69;100630.50;4988373;28;20031;-78
2022/09/11 06:44:04;;;;;;;4.18;2.80;;;;;;;13.05;89.13;100653.00;4996957;28;20028;-73
2022/09/11 06:46:34;;;;;;;5.15;2.20;;;;;;;13.16;89.46;100653.78;4989244;28;20054;-72
2022/09/11 06:48:59;;;;;;;3.10;2.13;;;;;;;13.21;88.82;100644.69;5006194;28;20022;-74
2022/09/11 06:51:25;;;;;;;2.25;1.80;;;;;;;13.38;88.71;100645.22;4997380;28;20914;-73
2022/09/11 06:54:00;;;;;;;2.70;1.83;;;;;;;13.59;88.16;100636.91;4979444;28;20025;-71
2022/09/11 06:56:27;;;;;;;3.28;2.58;;;;;;;13.85;87.81;100642.31;4994599;28;20049;-73
2022/09/11 06:58:53;;;;;;;3.38;2.50;;;;;;;13.95;86.94;100631.25;5017967;28;20033;-72
2022/09/11 07:01:20;;;;;;;3.85;3.17;;;;;;;14.18;86.85;100653.66;5006706;28;20449;-71
2022/09/11 07:03:52;;;;;;;3.92;2.58;;;;;;;14.44;86.15;100646.91;5009753;28;20452;-71
2022/09/11 07:06:23;;;;;;;4.57;3.10;;;;;;;14.63;85.85;100651.72;4998396;28;20022;-71
2022/09/11 07:08:55;;;;;;;7.43;4.18;;;;;;;14.78;85.50;100642.53;5011369;28;20025;-71
2022/09/11 07:11:21;;;;;;;5.10;3.72;;;;;;;14.89;85.14;100643.25;5011846;28;20057;-70
2022/09/11 07:13:47;;;;;;;3.60;2.72;;;;;;;14.92;85.07;100648.16;5008727;28;20068;-71
2022/09/11 07:16:13;;;;;;;3.90;2.80;;;;;;;14.98;84.88;100652.50;5005955;28;20053;-70
2022/09/11 07:18:44;;;;;;;3.97;3.03;;;;;;;15.00;84.65;100653.06;5010923;28;20061;-70
2022/09/11 07:21:12;;;;;;;5.03;3.40;;;;;;;15.00;84.45;100642.03;5023218;28;20125;-71
2022/09/11 07:23:39;;;;;;;3.35;2.70;;;;;;;15.09;84.40;100642.22;5013302;28;20038;-72
2022/09/11 07:26:12;;;;;;;2.25;1.90;;;;;;;15.22;84.49;100641.53;5014524;28;20029;-72
2022/09/11 07:28:39;;;;;;;4.63;3.15;;;;;;;15.45;83.87;100637.16;5007010;28;20022;-71
2022/09/11 07:31:20;;;;;;;4.13;3.25;;;;;;;15.59;83.36;100650.22;5008419;28;20052;-72
2022/09/11 07:33:48;;;;;;;3.38;2.70;;;;;;;15.79;82.75;100652.75;5010560;28;20033;-72
2022/09/11 07:36:19;;;;;;;4.32;2.35;;;;;;;15.99;82.82;100645.31;5010767;28;20792;-71
2022/09/11 07:38:46;;;;;;;3.70;2.00;;;;;;;16.19;82.31;100647.78;5013350;28;20569;-71
2022/09/11 07:41:16;;;;;;;3.17;1.90;;;;;;;16.48;81.07;100644.03;5010652;28;20027;-71
2022/09/11 07:43:44;;;;;;;2.80;2.17;;;;;;;16.78;81.14;100641.06;5011255;28;20045;-70
2022/09/11 07:46:16;;;;;;;3.92;2.75;;;;;;;17.07;79.93;100640.88;5006575;28;20471;-71
2022/09/11 07:48:44;;;;;;;3.85;2.83;;;;;;;17.30;79.29;100624.41;5001496;28;20038;-72
2022/09/11 07:51:12;;;;;;;2.90;2.15;;;;;;;17.80;77.86;100632.78;5001204;28;20124;-71
2022/09/11 07:53:41;;;;;;;3.55;2.17;;;;;;;18.21;76.72;100636.59;4984295;28;20034;-73
2022/09/11 07:56:13;;;;;;;6.60;3.65;;;;;;;18.44;76.45;100634.66;4998278;28;20039;-76
2022/09/11 07:58:42;;;;;;;3.63;2.58;;;;;;;18.83;74.99;100645.03;4997488;28;20060;-76
2022/09/11 08:01:15;;;;;;;3.83;2.58;;;;;;;19.06;74.11;100622.06;4996789;28;20028;-72
2022/09/11 08:03:46;;;;;;;3.78;2.97;;;;;;;19.49;72.80;100633.31;5016481;28;20018;-73
2022/09/11 08:06:17;;;;;;;5.82;4.25;;;;;;;19.64;72.03;100648.69;5020647;28;20522;-73
2022/09/11 08:08:44;;;;;;;7.72;4.60;;;;;;;19.49;71.13;100630.56;5006024;28;20029;-71
2022/09/11 08:11:16;;;;;;;4.75;3.67;;;;;;;19.49;71.26;100643.56;5000209;28;20042;-74
2022/09/11 08:13:49;;;;;;;7.35;3.00;;;;;;;19.56;71.25;100646.69;5002962;28;20037;-71
2022/09/11 08:16:16;;;;;;;4.78;3.83;;;;;;;19.50;70.77;100623.03;5011338;28;20460;-70
2022/09/11 08:18:44;;;;;;;7.05;4.38;;;;;;;19.29;70.48;100643.03;5016667;28;20361;-70
2022/09/11 08:21:10;;;;;;;5.40;3.92;;;;;;;19.26;70.78;100653.91;4997565;28;20087;-70
2022/09/11 08:23:41;;;;;;;7.55;4.80;;;;;;;19.08;70.70;100647.47;4996439;28;20041;-70
2022/09/11 08:26:11;;;;;;;6.10;4.50;;;;;;;18.96;70.52;100646.13;4995991;28;20048;-71
2022/09/11 08:28:38;;;;;;;10.27;4.10;;;;;;;18.88;71.02;100648.84;5008345;28;20028;-70
2022/09/11 08:31:05;;;;;;;6.63;4.57;;;;;;;18.83;71.17;100649.75;5018990;28;20066;-71
2022/09/11 08:33:32;;;;;;;3.90;3.35;;;;;;;19.06;71.11;100649.78;4991279;28;20129;-72
2022/09/11 08:35:58;;;;;;;4.88;2.75;;;;;;;19.45;70.52;100650.91;5018654;28;20033;-70
2022/09/11 08:38:24;;;;;;;3.88;2.65;;;;;;;20.00;69.41;100646.84;4990867;28;20021;-71
2022/09/11 08:40:50;;;;;;;4.20;3.10;;;;;;;20.45;67.89;100646.53;4991023;28;20421;-71
2022/09/11 08:43:25;;;;;;;4.15;2.70;;;;;;;20.71;67.51;100646.53;5008103;28;20049;-72
2022/09/11 08:45:57;;;;;;;2.53;2.10;;;;;;;21.10;66.56;100644.63;5001496;28;20034;-72
2022/09/11 08:48:33;;;;;;;2.88;2.35;;;;;;;21.48;66.07;100637.47;5015514;28;20021;-70
2022/09/11 08:51:00;;;;;;;3.60;2.40;;;;;;;21.82;65.01;100654.34;5012742;28;20036;-70
2022/09/11 08:53:29;;;;;;;5.25;3.88;;;;;;;21.95;64.33;100642.13;4999240;28;20066;-70
2022/09/11 08:56:07;;;;;;;6.82;4.13;;;;;;;22.00;63.11;100644.69;5010130;28;20030;-71
2022/09/11 08:58:57;;;;;;;5.53;3.75;;;;;;;22.33;63.20;100648.72;5008663;28;20094;-71
2022/09/11 09:01:48;;;;;;;5.28;3.45;;;;;;;22.52;63.06;100648.25;5020509;28;20026;-71
2022/09/11 09:04:31;;;;;;;6.38;3.70;;;;;;;22.39;62.89;100650.19;5017703;28;20104;-71
2022/09/11 09:07:16;;;;;;;6.22;4.55;;;;;;;22.20;62.22;100661.78;5015421;28;20060;-71
2022/09/11 09:09:49;;;;;;;;;;;;;;;21.87;62.98;100660.50;5019179;28;20030;-70
2022/09/11 09:12:40;;;;;;;5.60;2.80;;;;;;;22.25;63.74;100659.59;5011977;28;19983;-71
2022/09/11 09:15:41;;;;;;;4.03;2.55;;;;;;;23.08;62.59;100659.81;5019973;28;20116;-71
2022/09/11 09:18:13;;;;;;;3.10;2.67;;;;;;;23.78;60.99;100653.38;5014914;28;20040;-71
2022/09/11 09:20:49;;;;;;;8.32;2.60;;;;;;;24.38;58.36;100647.22;5021301;28;20113;-71
2022/09/11 09:23:26;;;;;;;4.30;3.25;;;;;;;24.54;56.30;100656.47;5020294;28;20096;-71
2022/09/11 09:25:54;;;;;;;5.40;3.40;;;;;;;24.38;55.78;100663.97;5033849;28;20033;-72
2022/09/11 09:28:25;;;;;;;7.68;4.03;;;;;;;24.56;55.87;100653.31;5024907;28;20013;-75
2022/09/11 09:30:51;;;;;;;4.25;2.63;;;;;;;24.65;55.80;100661.56;5028373;28;20658;-72
2022/09/11 09:33:26;;;;;;;4.85;2.85;;;;;;;24.79;55.92;100656.38;5013921;28;20026;-72
2022/09/11 09:35:53;;;;;;;5.28;3.72;;;;;;;24.37;55.15;100654.78;5020664;28;20026;-73
2022/09/11 09:38:25;;;;;;;6.22;2.95;;;;;;;24.45;56.10;100655.81;5015000;28;20026;-71
2022/09/11 09:41:05;;;;;;;4.55;2.78;;;;;;;24.61;55.64;100655.88;5012670;28;20033;-73
2022/09/11 09:43:45;;;;;;;2.97;2.28;;;;;;;24.78;56.09;100654.78;5023192;28;20033;-71
2022/09/11 09:46:17;;;;;;;5.10;2.22;;;;;;;24.88;54.25;100643.06;5019137;28;20052;-70
2022/09/11 09:48:43;;;;;;;3.25;2.08;;;;;;;24.60;53.83;100659.03;5022788;28;20022;-71
2022/09/11 09:51:13;;;;;;;4.93;1.50;;;;;;;24.39;54.77;100660.81;5003626;28;20399;-71
2022/09/11 09:53:49;;;;;;;5.15;1.70;;;;;;;24.55;54.73;100677.66;5016700;28;20041;-70
2022/09/11 09:56:18;;;;;;;3.42;1.70;;;;;;;24.21;54.76;100670.66;5013993;28;20109;-71
2022/09/11 09:59:18;;;;;;;2.25;1.40;;;;;;;23.99;55.29;100680.38;5014896;28;20037;-72
2022/09/11 10:01:49;;;;;;;6.40;1.90;;;;;;;23.59;55.63;100675.47;4998071;28;20061;-71
2022/09/11 10:04:19;;;;;;;2.30;1.00;;;;;;;23.75;55.98;100670.03;5010045;28;20075;-70
2022/09/11 10:06:46;;;;;;;5.43;1.60;;;;;;;24.21;54.98;100677.06;5014154;28;20085;-71
2022/09/11 10:09:29;;;;;;;4.03;1.52;;;;;;;24.67;53.16;100664.84;5011240;28;20053;-73
2022/09/11 10:12:04;;;;;;;2.75;1.23;;;;;;;25.06;51.70;100663.09;5017282;28;20060;-73
2022/09/11 10:14:36;;;;;;;3.22;1.00;;;;;;;25.18;49.07;100673.41;5015510;28;20026;-75
2022/09/11 10:17:02;;;;;;;1.45;1.00;;;;;;;25.04;48.44;100667.44;5017196;28;20021;-72
2022/09/11 10:19:42;;;;;;;1.02;0.85;;;;;;;25.02;48.91;100664.19;5013090;28;20033;-74
2022/09/11 10:22:22;;;;;;;1.42;0.90;;;;;;;25.06;49.26;100662.31;4995947;28;20026;-74
2022/09/11 10:25:14;;;;;;;1.83;1.05;;;;;;;24.85;49.75;100665.31;5014071;28;20046;-71
2022/09/11 10:28:02;;;;;;;2.17;0.88;;;;;;;24.55;49.47;100657.28;5015019;28;20022;-75
2022/09/11 10:30:35;;;;;;;2.45;0.90;;;;;;;24.88;50.82;100651.44;5007284;28;20030;-71
2022/09/11 10:33:16;;;;;;;2.90;0.93;;;;;;;25.52;48.08;100659.09;5015861;28;20022;-70
2022/09/11 10:35:50;;;;;;;2.97;1.00;;;;;;;25.55;48.62;100642.41;5018040;28;20021;-72
2022/09/11 10:38:18;;;;;;;2.25;1.08;;;;;;;26.07;45.89;100646.00;5011471;28;20446;-71
2022/09/11 10:41:09;;;;;;;5.30;0.80;;;;;;;26.43;45.77;100651.53;5010308;28;20036;-71
2022/09/11 10:43:49;;;;;;;1.92;0.70;;;;;;;28.32;41.49;100640.31;5005456;28;20085;-70
2022/09/11 10:46:18;;;;;;;1.02;0.60;;;;;;;30.49;39.06;100640.94;5015060;28;20049;-71
2022/09/11 10:49:01;;;;;;;1.55;0.63;;;;;;;32.66;34.67;100638.72;5024523;28;20114;-72
2022/09/11 10:51:30;;;;;;;0.88;0.68;;;;;;;33.72;30.46;100641.16;4996271;28;20037;-69
2022/09/11 10:54:30;;;;;;;1.70;0.85;;;;;;;34.14;29.17;100644.00;5013930;28;20061;-71
2022/09/11 10:56:59;;;;;;;2.90;0.77;;;;;;;33.79;28.51;100642.34;5013297;28;20026;-72
2022/09/11 11:00:12;;;;;;;2.85;0.80;;;;;;;33.54;30.32;100638.53;5015995;28;20037;-69
2022/09/11 11:02:40;;;;;;;1.73;0.60;;;;;;;35.52;26.21;100643.63;4910432;29;20032;-71
2022/09/11 11:05:18;;;;;;;1.02;0.50;;;;;;;36.27;26.06;100647.06;5008498;28;20037;-71
2022/09/11 11:08:02;;;;;;;1.20;0.60;;;;;;;36.99;24.26;100651.22;5011288;28;20120;-71
2022/09/11 11:10:50;;;;;;;1.15;0.50;;;;;;;38.39;22.88;100641.00;5018753;28;20439;-70
2022/09/11 11:13:32;;;;;;;0.75;0.52;;;;;;;39.17;21.50;100641.06;5004802;28;20027;-69
2022/09/11 11:16:03;;;;;;;1.30;0.50;;;;;;;38.80;20.57;100644.25;5016460;28;20048;-71
2022/09/11 11:18:36;;;;;;;0.82;0.47;;;;;;;38.01;21.05;100630.25;5011824;28;20026;-75
2022/09/11 11:21:40;;;;;;;2.40;0.60;;;;;;;37.42;22.77;100625.75;5016018;28;20040;-74
2022/09/11 11:24:25;;;;;;;3.10;0.40;;;;;;;38.46;22.00;100622.81;4923047;29;20441;-73
2022/09/11 11:27:26;;;;;;;7.25;0.60;;;;;;;39.67;20.72;100619.28;5014087;28;20083;-70
2022/09/11 11:30:10;;;;;;;2.42;0.77;;;;;;;39.49;20.15;100622.78;5011220;28;20031;-75
2022/09/11 11:32:42;;;;;;;1.38;0.38;;;;;;;39.68;19.72;100634.41;5022769;28;20030;-71
2022/09/11 11:35:22;;;;;;;1.25;0.63;;;;;;;39.53;20.39;100617.75;5023595;28;20724;-73
2022/09/11 11:37:52;;;;;;;1.42;0.30;;;;;;;39.66;20.28;100609.09;5011016;28;20034;-72
2022/09/11 11:40:30;;;;;;;2.15;0.40;;;;;;;40.19;19.13;100610.47;5011475;28;20393;-71
2022/09/11 11:43:04;;;;;;;1.05;0.50;;;;;;;40.48;18.80;100613.84;5015990;28;20018;-75
2022/09/11 11:45:40;;;;;;;2.05;0.60;;;;;;;40.88;18.99;100611.44;4996318;28;20034;-74